createdAt,value
2023-03-24T00:01:20.522Z,85.02
2023-03-24T00:03:25.925Z,84.91
2023-03-24T00:05:30.570Z,84.92
2023-03-24T00:07:35.400Z,84.90
2023-03-24T00:09:38.171Z,84.81
2023-03-24T00:11:40.954Z,85.20
2023-03-24T00:13:43.758Z,84.71
2023-03-24T00:15:49.013Z,84.71
2023-03-24T00:17:52.046Z,84.93
2023-03-24T00:19:56.267Z,84.96
2023-03-24T00:22:00.780Z,84.71
2023-03-24T00:24:05.167Z,84.88
2023-03-24T00:26:12.479Z,85.05
2023-03-24T00:28:16.509Z,85.06
2023-03-24T00:30:20.198Z,84.67
2023-03-24T00:32:23.120Z,84.69
2023-03-24T00:34:25.926Z,84.46
2023-03-24T00:36:29.758Z,84.56
2023-03-24T00:38:36.714Z,84.60
2023-03-24T00:40:39.544Z,84.28
2023-03-24T00:42:46.034Z,84.08
2023-03-24T00:44:48.744Z,84.54
2023-03-24T00:46:58.409Z,84.38
2023-03-24T00:49:06.546Z,84.50
2023-03-24T00:51:11.235Z,84.36
2023-03-24T00:53:16.202Z,84.52
2023-03-24T00:55:19.140Z,84.46
2023-03-24T00:57:22.407Z,84.45
2023-03-24T00:59:25.108Z,84.36
2023-03-24T01:01:33.580Z,84.48
2023-03-24T01:03:43.387Z,84.84
2023-03-24T01:05:48.596Z,84.63
2023-03-24T01:07:56.696Z,84.70
2023-03-24T01:09:59.734Z,85.10
2023-03-24T01:12:04.542Z,84.74
2023-03-24T01:14:07.506Z,84.98
2023-03-24T01:16:10.403Z,85.25
2023-03-24T01:18:14.868Z,85.67
2023-03-24T01:20:17.582Z,85.53
2023-03-24T01:22:20.780Z,85.38
2023-03-24T01:24:25.955Z,85.92
2023-03-24T01:26:28.574Z,85.89
2023-03-24T01:28:31.698Z,85.72
2023-03-24T01:30:34.506Z,86.05
2023-03-24T01:32:37.664Z,86.44
2023-03-24T01:34:40.330Z,86.52
2023-03-24T01:36:43.064Z,86.90
2023-03-24T01:38:45.827Z,87.04
2023-03-24T01:40:48.680Z,87.00
2023-03-24T01:42:52.341Z,87.57
2023-03-24T01:45:00.742Z,87.39
2023-03-24T01:47:07.496Z,87.94
2023-03-24T01:49:10.457Z,88.04
2023-03-24T01:51:23.623Z,88.19
2023-03-24T01:53:28.785Z,88.56
2023-03-24T01:55:32.373Z,88.38
2023-03-24T01:57:43.027Z,88.55
2023-03-24T01:59:49.649Z,88.99
2023-03-24T02:02:02.888Z,89.33
2023-03-24T02:04:07.610Z,89.47
2023-03-24T02:06:11.446Z,89.46
2023-03-24T02:08:34.734Z,89.69
2023-03-24T02:10:38.775Z,89.80
2023-03-24T02:12:43.135Z,90.27
2023-03-24T02:14:46.718Z,90.60
2023-03-24T02:17:30.390Z,90.73
2023-03-24T02:20:11.797Z,91.01
2023-03-24T02:22:49.438Z,90.92
2023-03-24T02:25:16.967Z,90.79
2023-03-24T02:27:19.535Z,90.74
2023-03-24T02:30:04.507Z,90.92
2023-03-24T02:32:34.683Z,90.86
2023-03-24T02:34:43.386Z,90.51
2023-03-24T02:37:10.139Z,90.54
2023-03-24T02:39:21.528Z,90.24
2023-03-24T02:41:38.634Z,90.20
2023-03-24T02:43:53.563Z,89.84
2023-03-24T02:46:20.670Z,90.02
2023-03-24T02:48:42.827Z,90.04
2023-03-24T02:50:51.412Z,90.17
2023-03-24T02:53:00.642Z,90.25
2023-03-24T02:55:15.688Z,90.13
2023-03-24T02:57:42.672Z,90.46
2023-03-24T02:59:56.655Z,90.34
2023-03-24T03:02:14.838Z,90.71
2023-03-24T03:04:22.409Z,90.56
2023-03-24T03:06:32.947Z,90.85
2023-03-24T03:08:37.037Z,90.63
2023-03-24T03:10:46.608Z,90.96
2023-03-24T03:12:55.090Z,90.65
2023-03-24T03:15:06.718Z,90.94
2023-03-24T03:17:33.373Z,91.08
2023-03-24T03:19:42.727Z,90.95
2023-03-24T03:21:48.674Z,90.86
2023-03-24T03:23:53.955Z,90.89
2023-03-24T03:26:04.872Z,90.79
2023-03-24T03:28:10.778Z,90.29
2023-03-24T03:30:22.570Z,90.38
2023-03-24T03:32:31.800Z,90.24
2023-03-24T03:34:58.313Z,89.75
2023-03-24T03:37:44.852Z,89.34
2023-03-24T03:40:05.289Z,88.79
2023-03-24T03:42:08.225Z,88.72
2023-03-24T03:44:11.243Z,88.57
2023-03-24T03:46:15.499Z,88.32
2023-03-24T03:48:19.072Z,87.82
2023-03-24T03:50:22.158Z,87.48
2023-03-24T03:52:24.852Z,87.49
2023-03-24T03:54:31.049Z,87.51
2023-03-24T03:56:36.271Z,87.32
2023-03-24T03:58:40.164Z,87.13
2023-03-24T04:00:44.500Z,87.07
2023-03-24T04:03:14.523Z,86.47
2023-03-24T04:05:26.279Z,86.41
2023-03-24T04:07:58.358Z,85.87
2023-03-24T04:10:29.933Z,86.06
2023-03-24T04:13:06.863Z,85.78
2023-03-24T04:15:15.249Z,85.54
2023-03-24T04:17:35.815Z,85.31
2023-03-24T04:19:57.334Z,84.97
2023-03-24T04:22:18.392Z,84.68
2023-03-24T04:24:29.572Z,84.59
2023-03-24T04:26:34.548Z,84.87
2023-03-24T04:29:03.850Z,84.77
2023-03-24T04:31:23.963Z,84.52
2023-03-24T04:33:52.373Z,83.96
2023-03-24T04:36:22.587Z,84.30
2023-03-24T04:38:30.545Z,84.39
2023-03-24T04:40:35.075Z,83.99
2023-03-24T04:42:45.686Z,83.96
2023-03-24T04:44:51.713Z,84.18
2023-03-24T04:46:58.399Z,83.43
2023-03-24T04:49:03.252Z,83.48
2023-03-24T04:51:07.719Z,83.62
2023-03-24T04:53:10.929Z,83.26
2023-03-24T04:55:45.027Z,82.72
2023-03-24T04:57:47.814Z,82.56
2023-03-24T04:59:50.560Z,82.67
2023-03-24T05:01:53.712Z,82.44
2023-03-24T05:03:58.494Z,82.12
2023-03-24T05:06:01.906Z,81.76
2023-03-24T05:08:04.932Z,81.13
2023-03-24T05:10:08.694Z,81.10
2023-03-24T05:12:13.210Z,80.98
2023-03-24T05:14:17.007Z,80.42
2023-03-24T05:16:20.485Z,79.87
2023-03-24T05:18:23.186Z,79.02
2023-03-24T05:20:27.344Z,78.79
2023-03-24T05:22:30.003Z,77.71
2023-03-24T05:24:33.007Z,77.48
2023-03-24T05:26:36.040Z,77.01
2023-03-24T05:28:38.848Z,76.69
2023-03-24T05:30:41.915Z,76.60
2023-03-24T05:32:46.828Z,76.13
2023-03-24T05:34:50.010Z,75.64
2023-03-24T05:36:52.799Z,75.62
2023-03-24T05:38:55.769Z,75.51
2023-03-24T05:41:03.035Z,75.49
2023-03-24T05:43:06.153Z,76.25
2023-03-24T05:45:10.071Z,75.75
2023-03-24T05:47:16.273Z,75.75
2023-03-24T05:49:18.874Z,75.23
2023-03-24T05:51:21.971Z,74.82
2023-03-24T05:53:24.590Z,74.67
2023-03-24T05:55:27.599Z,74.06
2023-03-24T05:57:34.933Z,73.38
2023-03-24T05:59:38.891Z,72.82
2023-03-24T06:01:44.492Z,72.19
2023-03-24T06:03:49.451Z,71.94
2023-03-24T06:05:53.005Z,71.10
2023-03-24T06:07:58.790Z,70.58
2023-03-24T06:10:05.168Z,70.80
2023-03-24T06:12:08.388Z,70.33
2023-03-24T06:14:11.107Z,69.74
2023-03-24T06:16:14.301Z,69.55
2023-03-24T06:18:17.017Z,69.31
2023-03-24T06:20:19.607Z,68.97
2023-03-24T06:22:22.921Z,68.83
2023-03-24T06:24:26.057Z,68.28
2023-03-24T06:26:30.956Z,67.52
2023-03-24T06:28:34.724Z,67.02
2023-03-24T06:30:39.017Z,67.09
2023-03-24T06:32:42.441Z,66.23
2023-03-24T06:34:45.289Z,65.84
2023-03-24T06:36:48.510Z,65.58
2023-03-24T06:38:53.936Z,65.20
2023-03-24T06:41:01.440Z,64.87
2023-03-24T06:43:04.154Z,65.32
2023-03-24T06:45:07.792Z,65.75
2023-03-24T06:47:10.704Z,65.95
2023-03-24T06:49:13.356Z,66.04
2023-03-24T06:51:16.273Z,66.36
2023-03-24T06:53:19.286Z,66.69
2023-03-24T06:55:22.452Z,66.73
2023-03-24T06:57:25.254Z,66.81
2023-03-24T06:59:28.527Z,66.75
2023-03-24T07:01:31.314Z,66.18
2023-03-24T07:03:34.320Z,66.15
2023-03-24T07:05:42.276Z,65.82
2023-03-24T07:09:50.672Z,65.46
2023-03-24T07:11:53.614Z,65.90
2023-03-24T07:13:56.740Z,65.20
2023-03-24T07:15:59.563Z,64.93
2023-03-24T07:18:02.407Z,65.13
2023-03-24T07:20:08.540Z,64.85
2023-03-24T07:22:11.402Z,64.97
2023-03-24T07:24:14.043Z,64.70
2023-03-24T07:26:16.697Z,63.98
2023-03-24T07:28:19.896Z,63.25
2023-03-24T07:30:30.032Z,63.02
2023-03-24T07:32:40.983Z,62.92
2023-03-24T07:34:45.970Z,62.74
2023-03-24T07:36:48.801Z,62.57
2023-03-24T07:38:51.483Z,62.87
2023-03-24T07:40:54.871Z,63.15
2023-03-24T07:43:01.590Z,63.13
2023-03-24T07:45:05.654Z,62.97
2023-03-24T07:47:08.375Z,62.59
2023-03-24T07:49:18.786Z,62.84
2023-03-24T07:51:22.368Z,63.49
2023-03-24T07:53:25.100Z,63.68
2023-03-24T07:55:27.840Z,64.59
2023-03-24T07:57:32.115Z,64.83
2023-03-24T07:59:35.036Z,65.12
2023-03-24T08:01:38.789Z,64.89
2023-03-24T08:03:42.298Z,64.85
2023-03-24T08:05:45.973Z,65.07
2023-03-24T08:07:53.703Z,66.06
2023-03-24T08:09:56.626Z,65.88
2023-03-24T08:12:06.944Z,65.79
2023-03-24T08:14:16.478Z,66.08
2023-03-24T08:16:19.147Z,66.13
2023-03-24T08:18:24.486Z,65.75
2023-03-24T08:20:29.703Z,66.01
2023-03-24T08:22:32.418Z,65.90
2023-03-24T08:24:36.526Z,65.78
2023-03-24T08:26:39.201Z,65.42
2023-03-24T08:28:41.956Z,65.10
2023-03-24T08:30:44.778Z,64.51
2023-03-24T08:32:51.539Z,64.18
2023-03-24T08:34:54.595Z,64.41
2023-03-24T08:36:57.236Z,64.07
2023-03-24T08:39:00.115Z,63.95
2023-03-24T08:41:06.978Z,63.44
2023-03-24T08:43:14.511Z,62.95
2023-03-24T08:45:21.201Z,62.83
2023-03-24T08:47:23.927Z,62.93
2023-03-24T08:49:26.565Z,63.02
2023-03-24T08:51:29.512Z,63.02
2023-03-24T08:53:32.252Z,62.53
2023-03-24T08:55:37.469Z,62.76
2023-03-24T08:57:40.064Z,62.56
2023-03-24T08:59:42.915Z,62.35
2023-03-24T09:01:45.885Z,62.57
2023-03-24T09:03:48.976Z,62.60
2023-03-24T09:05:55.296Z,62.52
2023-03-24T09:08:00.664Z,62.25
2023-03-24T09:10:05.512Z,62.40
2023-03-24T09:12:09.850Z,62.13
2023-03-24T09:14:12.606Z,62.56
2023-03-24T09:16:16.604Z,61.97
2023-03-24T09:18:21.378Z,61.78
2023-03-24T09:20:24.176Z,61.89
2023-03-24T09:22:26.878Z,61.83
2023-03-24T09:24:29.512Z,61.24
2023-03-24T09:26:34.062Z,60.78
2023-03-24T09:28:36.771Z,60.76
2023-03-24T09:30:39.478Z,60.33
2023-03-24T09:32:42.424Z,60.07
2023-03-24T09:34:45.417Z,59.48
2023-03-24T09:36:48.298Z,59.76
2023-03-24T09:38:50.916Z,60.08
2023-03-24T09:40:58.067Z,59.84
2023-03-24T09:43:06.973Z,59.29
2023-03-24T09:45:22.119Z,59.13
2023-03-24T09:47:36.970Z,59.42
2023-03-24T09:49:43.768Z,59.42
2023-03-24T09:51:47.242Z,59.63
2023-03-24T09:54:02.352Z,59.38
2023-03-24T09:56:23.758Z,59.32
2023-03-24T09:58:29.854Z,58.92
2023-03-24T10:00:34.701Z,58.58
2023-03-24T10:02:37.502Z,58.59
2023-03-24T10:04:40.216Z,58.85
2023-03-24T10:06:43.812Z,58.44
2023-03-24T10:09:10.598Z,58.77
2023-03-24T10:11:35.984Z,58.59
2023-03-24T10:14:11.692Z,58.06
2023-03-24T10:16:25.895Z,58.36
2023-03-24T10:18:39.460Z,58.47
2023-03-24T10:20:46.250Z,58.09
2023-03-24T10:22:48.835Z,58.12
2023-03-24T10:25:00.122Z,57.76
2023-03-24T10:27:34.851Z,57.53
2023-03-24T10:29:39.388Z,57.81
2023-03-24T10:31:47.624Z,57.92
2023-03-24T10:33:50.587Z,57.58
2023-03-24T10:36:07.715Z,57.29
2023-03-24T10:38:18.827Z,57.06
2023-03-24T10:40:25.819Z,56.78
2023-03-24T10:42:37.210Z,56.21
2023-03-24T10:44:40.326Z,56.12
2023-03-24T10:46:50.697Z,56.25
2023-03-24T10:49:06.941Z,55.73
2023-03-24T10:51:18.735Z,56.37
2023-03-24T10:53:21.636Z,55.75
2023-03-24T10:55:35.899Z,56.32
2023-03-24T10:57:38.639Z,56.77
2023-03-24T10:59:56.236Z,56.67
2023-03-24T11:02:11.423Z,56.79
2023-03-24T11:04:20.386Z,57.89
2023-03-24T11:06:23.247Z,57.90
2023-03-24T11:08:32.042Z,58.35
2023-03-24T11:10:34.769Z,58.56
2023-03-24T11:12:40.060Z,58.33
2023-03-24T11:14:46.139Z,58.26
2023-03-24T11:16:48.814Z,58.51
2023-03-24T11:19:01.249Z,58.57
2023-03-24T11:21:07.195Z,58.58
2023-03-24T11:23:09.808Z,58.24
2023-03-24T11:25:13.487Z,58.24
2023-03-24T11:27:18.574Z,58.44
2023-03-24T11:29:25.798Z,58.19
2023-03-24T11:31:35.395Z,58.24
2023-03-24T11:33:56.857Z,58.12
2023-03-24T11:36:05.626Z,58.38
2023-03-24T11:38:08.889Z,58.27
2023-03-24T11:40:26.100Z,58.26
2023-03-24T11:42:28.760Z,58.25
2023-03-24T11:44:52.616Z,58.56
2023-03-24T11:47:05.152Z,58.69
2023-03-24T11:49:10.452Z,58.39
2023-03-24T11:51:19.773Z,58.76
2023-03-24T11:53:26.143Z,58.53
2023-03-24T11:55:49.887Z,58.47
2023-03-24T11:58:02.424Z,58.63
2023-03-24T12:00:20.662Z,58.73
2023-03-24T12:02:38.415Z,58.70
2023-03-24T12:05:14.688Z,58.78
2023-03-24T12:07:36.513Z,58.76
2023-03-24T12:10:07.753Z,58.79
2023-03-24T12:12:33.548Z,58.94
2023-03-24T12:15:07.781Z,58.90
2023-03-24T12:17:23.720Z,59.41
2023-03-24T12:19:48.942Z,59.61
2023-03-24T12:22:23.322Z,59.58
2023-03-24T12:24:38.178Z,59.44
2023-03-24T12:26:42.777Z,60.12
2023-03-24T12:29:10.158Z,59.71
2023-03-24T12:31:54.098Z,60.18
2023-03-24T12:34:19.638Z,60.50
2023-03-24T12:36:37.334Z,60.19
2023-03-24T12:38:55.969Z,60.06
2023-03-24T12:41:13.208Z,60.44
2023-03-24T12:43:24.220Z,60.15
2023-03-24T12:45:57.483Z,60.02
2023-03-24T12:48:34.302Z,60.25
2023-03-24T12:51:08.855Z,59.79
2023-03-24T12:53:36.736Z,60.33
2023-03-24T12:55:48.540Z,60.34
2023-03-24T12:57:51.532Z,60.54
2023-03-24T13:00:06.797Z,60.54
2023-03-24T13:02:25.580Z,61.21
2023-03-24T13:04:35.613Z,61.26
2023-03-24T13:06:50.089Z,61.77
2023-03-24T13:09:33.549Z,61.83
2023-03-24T13:11:43.766Z,62.45
2023-03-24T13:13:47.138Z,62.83
2023-03-24T13:16:00.933Z,63.46
2023-03-24T13:18:12.470Z,63.88
2023-03-24T13:20:24.666Z,63.69
2023-03-24T13:22:28.134Z,64.18
2023-03-24T13:24:31.865Z,64.49
2023-03-24T13:26:39.963Z,65.04
2023-03-24T13:29:04.061Z,65.05
2023-03-24T13:31:09.840Z,65.18
2023-03-24T13:33:21.459Z,65.53
2023-03-24T13:36:29.654Z,65.31
2023-03-24T13:38:38.205Z,65.48
2023-03-24T13:40:41.752Z,65.51
2023-03-24T13:42:50.220Z,65.30
2023-03-24T13:44:53.046Z,65.86
2023-03-24T13:47:14.957Z,65.35
2023-03-24T13:49:17.538Z,66.34
2023-03-24T13:51:31.701Z,66.08
2023-03-24T13:53:45.703Z,65.99
2023-03-24T13:55:53.674Z,66.00
2023-03-24T13:58:01.822Z,66.67
2023-03-24T14:00:12.152Z,66.12
2023-03-24T14:02:26.654Z,66.46
2023-03-24T14:04:29.471Z,66.45
2023-03-24T14:06:52.407Z,66.33
2023-03-24T14:09:06.563Z,66.29
2023-03-24T14:11:34.518Z,66.76
2023-03-24T14:13:47.191Z,67.15
2023-03-24T14:15:57.284Z,66.97
2023-03-24T14:18:25.820Z,66.63
2023-03-24T14:20:39.463Z,67.04
2023-03-24T14:22:48.694Z,67.15
2023-03-24T14:25:27.244Z,67.05
2023-03-24T14:27:42.924Z,66.95
2023-03-24T14:29:51.782Z,67.15
2023-03-24T14:32:17.004Z,66.84
2023-03-24T14:34:25.621Z,66.89
2023-03-24T14:36:39.845Z,66.36
2023-03-24T14:38:45.129Z,66.93
2023-03-24T14:40:57.205Z,66.40
2023-03-24T14:43:13.471Z,66.75
2023-03-24T14:45:56.640Z,66.10
2023-03-24T14:48:01.527Z,66.56
2023-03-24T14:50:22.232Z,66.02
2023-03-24T14:52:45.149Z,65.88
2023-03-24T14:54:59.765Z,65.66
2023-03-24T14:57:04.432Z,65.82
2023-03-24T14:59:42.472Z,65.80
2023-03-24T15:01:48.857Z,65.50
2023-03-24T15:04:07.457Z,65.48
2023-03-24T15:06:17.297Z,65.88
2023-03-24T15:08:27.307Z,66.25
2023-03-24T15:10:48.168Z,65.97
2023-03-24T15:12:51.929Z,66.20
2023-03-24T15:14:54.774Z,66.54
2023-03-24T15:17:24.308Z,66.73
2023-03-24T15:19:31.840Z,66.95
2023-03-24T15:21:34.401Z,67.46
2023-03-24T15:23:37.039Z,67.55
2023-03-24T15:25:42.536Z,67.74
2023-03-24T15:27:52.143Z,68.09
2023-03-24T15:30:00.454Z,67.76
2023-03-24T15:32:04.644Z,67.49
2023-03-24T15:34:30.495Z,67.57
2023-03-24T15:36:40.921Z,67.98
2023-03-24T15:38:50.136Z,68.33
2023-03-24T15:41:08.061Z,67.82
2023-03-24T15:43:20.665Z,67.95
2023-03-24T15:45:32.343Z,68.08
2023-03-24T15:47:37.964Z,67.91
2023-03-24T15:49:51.821Z,68.25
2023-03-24T15:52:27.274Z,68.48
2023-03-24T15:55:22.377Z,68.93
2023-03-24T15:57:26.009Z,68.87
2023-03-24T15:59:37.220Z,69.11
2023-03-24T16:01:44.082Z,69.00
2023-03-24T16:03:51.109Z,69.14
2023-03-24T16:05:56.111Z,69.69
2023-03-24T16:08:07.994Z,69.73
2023-03-24T16:10:55.935Z,70.88
2023-03-24T16:13:19.978Z,72.53
2023-03-24T16:15:23.404Z,73.15
2023-03-24T16:17:26.287Z,74.27
2023-03-24T16:19:29.107Z,76.04
2023-03-24T16:21:31.849Z,76.96
2023-03-24T16:23:34.524Z,77.70
2023-03-24T16:25:37.230Z,78.71
2023-03-24T16:27:40.067Z,78.83
2023-03-24T16:29:43.653Z,79.68
2023-03-24T16:31:49.413Z,80.56
2023-03-24T16:33:53.384Z,81.47
2023-03-24T16:35:56.556Z,82.88
2023-03-24T16:37:59.236Z,84.05
2023-03-24T16:40:03.579Z,84.50
2023-03-24T16:42:06.799Z,85.30
2023-03-24T16:44:09.444Z,85.41
2023-03-24T16:46:18.018Z,86.41
2023-03-24T16:48:20.891Z,86.96
2023-03-24T16:50:23.471Z,87.81
2023-03-24T16:52:26.295Z,88.47
2023-03-24T16:54:28.917Z,88.79
2023-03-24T16:56:31.871Z,88.98
2023-03-24T16:58:34.770Z,89.48
2023-03-24T17:00:37.513Z,90.22
2023-03-24T17:02:40.263Z,90.15
2023-03-24T17:04:42.948Z,90.68
2023-03-24T17:06:54.461Z,90.85
2023-03-24T17:08:58.355Z,91.22
2023-03-24T17:11:01.794Z,91.20
2023-03-24T17:13:04.519Z,91.98
2023-03-24T17:15:08.112Z,92.12
2023-03-24T17:17:11.802Z,92.54
2023-03-24T17:19:17.540Z,92.10
2023-03-24T17:21:20.370Z,92.38
2023-03-24T17:23:23.032Z,92.81
2023-03-24T17:25:29.360Z,92.71
2023-03-24T17:27:32.339Z,93.09
2023-03-24T17:29:36.726Z,93.57
2023-03-24T17:31:39.654Z,93.31
2023-03-24T17:33:42.283Z,94.06
2023-03-24T17:35:48.452Z,93.99
2023-03-24T17:37:54.010Z,94.13
2023-03-24T17:39:57.684Z,94.98
2023-03-24T17:42:01.661Z,95.12
2023-03-24T17:44:04.489Z,94.93
2023-03-24T17:46:07.256Z,95.54
2023-03-24T17:48:10.060Z,95.78
2023-03-24T17:50:14.113Z,95.76
2023-03-24T17:52:16.928Z,96.21
2023-03-24T17:54:20.787Z,97.00
2023-03-24T17:56:24.270Z,97.02
2023-03-24T17:58:27.787Z,96.61
2023-03-24T18:00:30.734Z,96.95
2023-03-24T18:02:33.425Z,97.60
2023-03-24T18:04:36.371Z,97.68
2023-03-24T18:06:42.099Z,97.91
2023-03-24T18:08:44.798Z,97.78
2023-03-24T18:10:47.637Z,98.18
2023-03-24T18:12:53.337Z,97.92
2023-03-24T18:14:56.251Z,97.68
2023-03-24T18:16:58.901Z,97.79
2023-03-24T18:19:02.020Z,98.01
2023-03-24T18:21:07.417Z,98.42
2023-03-24T18:23:10.011Z,98.52
2023-03-24T18:25:13.768Z,98.81
2023-03-24T18:27:16.504Z,98.65
2023-03-24T18:29:22.233Z,99.10
2023-03-24T18:31:26.502Z,99.28
2023-03-24T18:33:33.320Z,99.73
2023-03-24T18:35:36.177Z,99.69
2023-03-24T18:37:38.905Z,100.00
2023-03-24T18:39:41.641Z,100.00
2023-03-24T18:41:44.329Z,100.00
2023-03-24T18:43:48.292Z,100.00
2023-03-24T18:45:51.465Z,100.00
2023-03-24T18:47:54.259Z,100.00
2023-03-24T18:49:56.957Z,100.00
2023-03-24T18:52:00.801Z,100.00
2023-03-24T18:54:07.674Z,100.00
2023-03-24T18:56:11.264Z,100.00
2023-03-24T18:58:15.629Z,100.00
2023-03-24T19:00:20.462Z,100.00
2023-03-24T19:02:23.515Z,100.00
2023-03-24T19:04:26.492Z,100.00
2023-03-24T19:06:31.574Z,100.00
2023-03-24T19:08:38.089Z,100.00
2023-03-24T19:10:45.325Z,100.00
2023-03-24T19:12:47.988Z,100.00
2023-03-24T19:14:50.938Z,100.00
2023-03-24T19:16:53.611Z,100.00
2023-03-24T19:18:58.097Z,100.00
2023-03-24T19:21:02.221Z,100.00
2023-03-24T19:23:05.212Z,100.00
2023-03-24T19:25:08.527Z,100.00
2023-03-24T19:27:11.392Z,100.00
2023-03-24T19:29:14.035Z,100.00
2023-03-24T19:31:18.894Z,100.00
2023-03-24T19:33:22.243Z,100.00
2023-03-24T19:35:25.337Z,100.00
2023-03-24T19:37:31.845Z,100.00
2023-03-24T19:39:34.664Z,100.00
2023-03-24T19:41:37.330Z,100.00
2023-03-24T19:43:40.498Z,100.00
2023-03-24T19:45:43.481Z,100.00
2023-03-24T19:47:46.634Z,100.00
2023-03-24T19:49:49.807Z,100.00
2023-03-24T19:51:52.452Z,100.00
2023-03-24T19:53:55.396Z,100.00
2023-03-24T19:55:59.415Z,100.00
2023-03-24T19:58:03.554Z,100.00
2023-03-24T20:00:09.642Z,100.00
2023-03-24T20:02:19.270Z,100.00
2023-03-24T20:04:24.268Z,100.00
2023-03-24T20:06:27.419Z,100.00
2023-03-24T20:08:31.145Z,100.00
2023-03-24T20:10:36.639Z,100.00
2023-03-24T20:12:39.467Z,100.00
2023-03-24T20:14:42.232Z,100.00
2023-03-24T20:16:45.134Z,100.00
2023-03-24T20:18:47.917Z,100.00
2023-03-24T20:20:51.488Z,100.00
2023-03-24T20:22:54.271Z,100.00
2023-03-24T20:25:01.220Z,100.00
2023-03-24T20:27:04.243Z,100.00
2023-03-24T20:29:06.936Z,100.00
2023-03-24T20:31:17.202Z,100.00
2023-03-24T20:33:20.971Z,100.00
2023-03-24T20:35:24.943Z,100.00
2023-03-24T20:37:29.451Z,100.00
2023-03-24T20:39:33.418Z,100.00
2023-03-24T20:41:36.136Z,100.00
2023-03-24T20:43:40.931Z,100.00
2023-03-24T20:45:44.319Z,100.00
2023-03-24T20:47:47.623Z,100.00
2023-03-24T20:49:50.718Z,100.00
2023-03-24T20:51:53.787Z,100.00
2023-03-24T20:53:56.819Z,100.00
2023-03-24T20:56:01.589Z,100.00
2023-03-24T20:58:08.276Z,100.00
2023-03-24T21:00:14.332Z,100.00
2023-03-24T21:02:19.054Z,100.00
2023-03-24T21:04:21.831Z,100.00
2023-03-24T21:06:24.589Z,100.00
2023-03-24T21:08:27.547Z,100.00
2023-03-24T21:10:30.260Z,100.00
2023-03-24T21:12:33.379Z,100.00
2023-03-24T21:14:36.048Z,100.00
2023-03-24T21:16:38.812Z,100.00
2023-03-24T21:18:42.811Z,100.00
2023-03-24T21:20:55.678Z,100.00
2023-03-24T21:23:03.724Z,100.00
2023-03-24T21:25:06.825Z,100.00
2023-03-24T21:27:09.534Z,100.00
2023-03-24T21:29:13.268Z,100.00
2023-03-24T21:31:25.123Z,100.00
2023-03-24T21:33:27.893Z,100.00
2023-03-24T21:35:30.512Z,100.00
2023-03-24T21:37:33.192Z,100.00
2023-03-24T21:39:36.289Z,100.00
2023-03-24T21:41:39.139Z,100.00
2023-03-24T21:43:42.286Z,100.00
2023-03-24T21:45:46.318Z,100.00
2023-03-24T21:47:50.120Z,100.00
2023-03-24T21:49:59.106Z,100.00
2023-03-24T21:52:03.408Z,100.00
2023-03-24T21:54:09.840Z,100.00
2023-03-24T21:56:12.501Z,100.00
2023-03-24T21:58:15.200Z,100.00
2023-03-24T22:00:20.940Z,100.00
2023-03-24T22:02:25.218Z,100.00
2023-03-24T22:04:27.910Z,100.00
2023-03-24T22:06:30.556Z,100.00
2023-03-24T22:08:33.258Z,100.00
2023-03-24T22:10:36.432Z,100.00
2023-03-24T22:12:39.751Z,100.00
2023-03-24T22:14:42.338Z,100.00
2023-03-24T22:16:44.960Z,100.00
2023-03-24T22:18:47.691Z,100.00
2023-03-24T22:20:55.147Z,100.00
2023-03-24T22:22:58.594Z,100.00
2023-03-24T22:25:01.517Z,100.00
2023-03-24T22:27:05.566Z,100.00
2023-03-24T22:29:08.291Z,100.00
2023-03-24T22:31:16.824Z,100.00
2023-03-24T22:33:19.798Z,100.00
2023-03-24T22:35:23.429Z,100.00
2023-03-24T22:37:26.535Z,100.00
2023-03-24T22:39:29.108Z,100.00
2023-03-24T22:41:31.662Z,100.00
2023-03-24T22:43:35.862Z,100.00
2023-03-24T22:45:38.651Z,100.00
2023-03-24T22:47:41.350Z,100.00
2023-03-24T22:49:44.048Z,100.00
2023-03-24T22:51:46.742Z,100.00
2023-03-24T22:53:49.616Z,100.00
2023-03-24T22:55:52.687Z,100.00
2023-03-24T22:57:55.953Z,100.00
2023-03-24T23:00:02.050Z,100.00
2023-03-24T23:02:09.932Z,100.00
2023-03-24T23:04:13.244Z,100.00
2023-03-24T23:06:16.109Z,100.00
2023-03-24T23:08:19.506Z,100.00
2023-03-24T23:10:22.153Z,100.00
2023-03-24T23:12:25.386Z,100.00
2023-03-24T23:14:28.295Z,100.00
2023-03-24T23:16:34.181Z,100.00
2023-03-24T23:18:37.949Z,100.00
2023-03-24T23:20:41.461Z,100.00
2023-03-24T23:22:44.068Z,100.00
2023-03-24T23:24:48.124Z,100.00
2023-03-24T23:26:50.691Z,100.00
2023-03-24T23:28:53.450Z,100.00
2023-03-24T23:30:56.153Z,100.00
2023-03-24T23:32:58.872Z,100.00
2023-03-24T23:35:03.098Z,100.00
2023-03-24T23:37:06.256Z,100.00
2023-03-24T23:39:09.093Z,100.00
2023-03-24T23:41:11.857Z,100.00
2023-03-24T23:43:14.536Z,100.00
2023-03-24T23:45:19.960Z,100.00
2023-03-24T23:47:22.589Z,100.00
2023-03-24T23:49:25.374Z,100.00
2023-03-24T23:51:28.478Z,100.00
2023-03-24T23:53:31.437Z,100.00
2023-03-24T23:55:34.005Z,100.00
2023-03-24T23:57:36.609Z,100.00
2023-03-24T23:59:39.899Z,100.00
